Time;durP1;ratioP1;P1;durP2;ratioP2;P2;SDS_P1;SDS_P2;PMS_P1;PMS_P2;Temp;Humidity;BMP_temperature;BMP_pressure;BME280_temperature;BME280_humidity;BME280_pressure;Samples;Min_cycle;Max_cycle;Signal;HPM_P1;HPM_P2
2024/02/23 00:02:07;;;;;;;1.27;1.27;;;8.80;99.90;;;;;;5060858;28;20471;-77
2024/02/23 00:04:35;;;;;;;1.10;1.10;;;8.80;1.00;;;;;;5062030;28;20864;-76
2024/02/23 00:07:05;;;;;;;1.17;1.17;;;8.90;99.90;;;;;;5059900;28;20928;-76
2024/02/23 00:09:33;;;;;;;1.17;1.17;;;8.80;99.90;;;;;;5058485;28;20459;-80
2024/02/23 00:12:02;;;;;;;1.43;1.20;;;8.70;99.90;;;;;;5062360;28;20550;-80
2024/02/23 00:14:31;;;;;;;1.10;1.10;;;8.80;1.00;;;;;;5054910;28;20454;-79
2024/02/23 00:17:01;;;;;;;1.27;1.27;;;8.80;99.90;;;;;;5059521;28;21134;-78
2024/02/23 00:19:32;;;;;;;1.20;1.20;;;8.80;99.90;;;;;;5061078;28;20993;-77
2024/02/23 00:22:00;;;;;;;1.20;1.20;;;8.80;99.90;;;;;;5061336;28;20468;-79
2024/02/23 00:24:30;;;;;;;1.10;1.10;;;8.70;99.90;;;;;;5067684;28;20554;-83
2024/02/23 00:26:59;;;;;;;1.37;1.37;;;8.90;99.90;;;;;;5067175;28;20455;-81
2024/02/23 00:29:27;;;;;;;1.20;1.20;;;8.80;99.90;;;;;;5063763;28;20447;-79
2024/02/23 00:31:55;;;;;;;1.20;1.20;;;8.90;99.90;;;;;;5064933;28;20509;-79
2024/02/23 00:34:24;;;;;;;1.20;1.20;;;8.80;99.90;;;;;;5065633;28;20475;-77
2024/02/23 00:36:52;;;;;;;1.20;1.20;;;8.90;99.90;;;;;;5067031;28;20476;-76
2024/02/23 00:39:20;;;;;;;1.43;1.20;;;9.00;99.90;;;;;;5064389;28;20461;-78
2024/02/23 00:41:50;;;;;;;1.20;1.20;;;8.80;99.90;;;;;;5064913;28;20479;-80
2024/02/23 00:44:18;;;;;;;1.60;1.37;;;8.90;99.90;;;;;;5063823;28;20455;-76
2024/02/23 00:46:46;;;;;;;1.20;1.20;;;8.70;99.90;;;;;;5066788;28;20436;-78
2024/02/23 00:49:14;;;;;;;1.30;1.20;;;8.70;99.90;;;;;;5064615;28;20528;-76
2024/02/23 00:51:43;;;;;;;1.60;1.20;;;8.80;99.90;;;;;;5064237;28;20506;-77
2024/02/23 00:54:12;;;;;;;2.33;1.20;;;8.90;99.90;;;;;;5063501;28;20444;-77
2024/02/23 00:56:40;;;;;;;1.40;1.40;;;8.90;99.90;;;;;;5062829;28;20464;-77
2024/02/23 00:59:20;;;;;;;1.37;1.27;;;8.80;99.90;;;;;;5064826;28;20995;-79
2024/02/23 01:01:49;;;;;;;1.13;1.13;;;8.80;99.90;;;;;;5064400;28;20612;-79
2024/02/23 01:04:17;;;;;;;1.87;1.70;;;8.60;99.90;;;;;;5066872;28;20969;-80
2024/02/23 01:06:45;;;;;;;1.10;1.10;;;8.50;99.90;;;;;;5065994;28;20458;-77
2024/02/23 01:09:16;;;;;;;1.30;1.30;;;8.60;99.90;;;;;;5063803;28;21023;-77
2024/02/23 01:11:44;;;;;;;1.47;1.10;;;8.50;99.90;;;;;;5061103;28;20471;-79
2024/02/23 01:14:12;;;;;;;1.40;1.30;;;8.60;99.90;;;;;;5064591;28;20466;-78
2024/02/23 01:16:42;;;;;;;1.20;1.20;;;8.60;99.90;;;;;;5062852;28;20466;-76
2024/02/23 01:19:11;;;;;;;1.30;1.20;;;8.60;99.90;;;;;;5063628;28;20462;-77
2024/02/23 01:21:39;;;;;;;1.30;1.20;;;8.60;99.90;;;;;;5064897;28;20555;-79
2024/02/23 01:24:07;;;;;;;1.77;1.30;;;8.60;99.90;;;;;;5065275;28;20457;-77
2024/02/23 01:26:36;;;;;;;1.33;1.20;;;8.60;99.90;;;;;;5064929;28;20450;-77
2024/02/23 01:29:09;;;;;;;1.70;1.60;;;8.50;99.90;;;;;;5059677;28;20498;-77
2024/02/23 01:31:37;;;;;;;1.97;1.50;;;8.60;99.90;;;;;;5064170;28;20486;-79
2024/02/23 01:34:07;;;;;;;1.20;1.20;;;8.70;99.90;;;;;;5065113;28;20448;-79
2024/02/23 01:36:36;;;;;;;1.60;1.60;;;8.60;99.90;;;;;;5063123;28;20464;-77
2024/02/23 01:39:04;;;;;;;1.33;1.23;;;8.70;99.90;;;;;;5063991;28;20451;-78
2024/02/23 01:41:33;;;;;;;1.30;1.30;;;8.50;99.90;;;;;;5064285;28;20554;-79
2024/02/23 01:44:01;;;;;;;2.40;1.40;;;8.40;99.90;;;;;;5066734;28;20960;-78
2024/02/23 01:46:30;;;;;;;2.07;1.40;;;8.40;99.90;;;;;;5066424;28;20483;-76
2024/02/23 01:48:58;;;;;;;1.20;1.20;;;8.50;99.90;;;;;;5062163;28;20451;-76
2024/02/23 01:51:28;;;;;;;3.63;1.20;;;8.40;99.90;;;;;;5064415;28;20447;-76
2024/02/23 01:53:56;;;;;;;1.77;1.20;;;8.50;99.90;;;;;;5083044;28;21252;-76
2024/02/23 01:56:25;;;;;;;2.10;1.30;;;8.40;99.90;;;;;;5063912;28;20484;-78
2024/02/23 01:58:55;;;;;;;2.63;1.27;;;8.50;99.90;;;;;;5063500;28;20546;-78
2024/02/23 02:01:23;;;;;;;2.60;1.30;;;8.50;99.90;;;;;;5063058;28;20459;-80
2024/02/23 02:03:51;;;;;;;1.27;1.10;;;8.40;99.90;;;;;;5064724;28;20961;-79
2024/02/23 02:06:20;;;;;;;1.10;1.10;;;8.50;99.90;;;;;;5061678;28;20524;-77
2024/02/23 02:08:49;;;;;;;1.40;1.23;;;8.60;99.90;;;;;;5065025;28;20503;-76
2024/02/23 02:11:18;;;;;;;1.57;1.10;;;8.60;99.90;;;;;;5064900;28;20460;-79
2024/02/23 02:13:46;;;;;;;4.60;1.40;;;8.60;99.90;;;;;;5062486;28;20455;-79
2024/02/23 02:16:14;;;;;;;1.10;1.10;;;8.60;99.90;;;;;;5062223;28;20467;-78
2024/02/23 02:18:44;;;;;;;1.33;1.30;;;8.50;99.90;;;;;;5063019;28;20464;-79
2024/02/23 02:21:12;;;;;;;2.50;1.20;;;8.50;99.90;;;;;;5062188;28;20451;-80
2024/02/23 02:23:41;;;;;;;1.27;1.17;;;8.30;99.90;;;;;;5062550;28;20451;-78
2024/02/23 02:26:10;;;;;;;3.03;1.10;;;8.50;99.90;;;;;;5064021;28;20454;-77
2024/02/23 02:28:38;;;;;;;1.13;1.10;;;8.50;99.90;;;;;;5061361;28;20513;-80
2024/02/23 02:31:07;;;;;;;1.30;1.20;;;8.50;99.90;;;;;;5063353;28;20641;-78
2024/02/23 02:33:35;;;;;;;1.40;1.30;;;8.50;99.90;;;;;;5063943;28;20816;-78
2024/02/23 02:36:03;;;;;;;1.47;1.20;;;8.40;99.90;;;;;;5057355;28;20451;-79
2024/02/23 02:38:33;;;;;;;1.27;1.17;;;8.30;99.90;;;;;;5058733;28;20475;-77
2024/02/23 02:41:01;;;;;;;1.30;1.30;;;8.40;99.90;;;;;;5058587;28;20506;-80
2024/02/23 02:43:31;;;;;;;1.10;1.10;;;8.30;99.90;;;;;;5059414;28;20467;-76
2024/02/23 02:45:59;;;;;;;4.10;1.20;;;8.40;99.90;;;;;;5059891;28;20452;-78
2024/02/23 02:48:27;;;;;;;1.30;1.20;;;8.40;99.90;;;;;;5057237;28;20463;-78
2024/02/23 02:50:56;;;;;;;1.00;1.00;;;8.40;99.90;;;;;;5059989;28;20466;-78
2024/02/23 02:53:24;;;;;;;1.00;1.00;;;8.40;99.90;;;;;;5057302;28;20544;-75
2024/02/23 02:55:52;;;;;;;1.17;1.10;;;8.40;99.90;;;;;;5061310;28;20458;-78
2024/02/23 02:58:20;;;;;;;1.20;1.00;;;8.40;99.90;;;;;;5058730;28;20468;-77
2024/02/23 03:00:50;;;;;;;1.00;1.00;;;8.40;99.90;;;;;;5060083;28;20452;-78
2024/02/23 03:03:18;;;;;;;1.00;1.00;;;8.30;99.90;;;;;;5056212;28;20528;-80
2024/02/23 03:05:47;;;;;;;1.00;1.00;;;8.30;99.90;;;;;;5060358;28;20460;-76
2024/02/23 03:08:15;;;;;;;2.83;1.10;;;8.10;99.90;;;;;;5059519;28;20456;-75
2024/02/23 03:10:43;;;;;;;1.10;1.10;;;8.30;99.90;;;;;;5060026;28;21049;-79
2024/02/23 03:13:11;;;;;;;1.10;1.10;;;8.30;99.90;;;;;;5062761;28;20464;-79
2024/02/23 03:15:40;;;;;;;1.20;1.20;;;8.30;99.90;;;;;;5057975;28;20469;-80
2024/02/23 03:18:09;;;;;;;1.10;1.10;;;8.20;99.90;;;;;;5059514;28;20521;-79
2024/02/23 03:20:38;;;;;;;1.20;1.10;;;8.10;99.90;;;;;;5061205;28;20447;-77
2024/02/23 03:23:06;;;;;;;1.20;1.10;;;8.20;99.90;;;;;;5062670;28;20493;-77
2024/02/23 03:25:34;;;;;;;1.20;1.10;;;8.20;99.90;;;;;;5063527;28;20471;-76
2024/02/23 03:28:02;;;;;;;1.10;1.10;;;8.20;99.90;;;;;;5063921;28;20447;-76
2024/02/23 03:30:31;;;;;;;1.57;1.10;;;8.20;99.90;;;;;;5062917;28;20462;-77
2024/02/23 03:33:04;;;;;;;1.00;1.00;;;8.20;99.90;;;;;;5062977;28;20475;-77
2024/02/23 03:35:33;;;;;;;1.20;1.20;;;8.20;99.90;;;;;;5059104;28;20827;-80
2024/02/23 03:38:02;;;;;;;1.10;1.10;;;8.10;99.90;;;;;;5064105;28;20478;-78
2024/02/23 03:40:30;;;;;;;2.37;1.10;;;8.20;99.90;;;;;;5062372;28;20440;-79
2024/02/23 03:42:58;;;;;;;1.53;1.47;;;8.10;99.90;;;;;;5060957;28;20460;-80
2024/02/23 03:45:26;;;;;;;2.60;1.20;;;8.20;99.90;;;;;;5063401;28;20451;-77
2024/02/23 03:47:55;;;;;;;2.50;1.03;;;8.20;99.90;;;;;;5060002;28;20463;-78
2024/02/23 03:50:23;;;;;;;1.00;1.00;;;8.10;99.90;;;;;;5062138;28;20547;-81
2024/02/23 03:52:53;;;;;;;1.23;1.10;;;8.10;99.90;;;;;;5060452;28;20474;-77
2024/02/23 03:55:21;;;;;;;1.00;1.00;;;8.10;99.90;;;;;;5061514;28;20491;-80
2024/02/23 03:57:50;;;;;;;1.43;1.03;;;8.10;99.90;;;;;;5065348;28;20581;-76
2024/02/23 04:00:19;;;;;;;1.17;1.10;;;8.20;99.90;;;;;;5069564;28;20680;-78
2024/02/23 04:02:47;;;;;;;1.13;1.13;;;8.10;99.90;;;;;;5061702;28;20478;-78
2024/02/23 04:05:15;;;;;;;1.10;1.10;;;8.00;99.90;;;;;;5066843;28;20472;-76
2024/02/23 04:07:44;;;;;;;2.00;1.20;;;8.00;99.90;;;;;;5063854;28;20454;-76
2024/02/23 04:10:16;;;;;;;1.30;1.20;;;7.90;99.90;;;;;;5064499;28;20459;-78
2024/02/23 04:12:44;;;;;;;1.63;1.20;;;7.90;99.90;;;;;;5066003;28;20531;-79
2024/02/23 04:15:12;;;;;;;1.30;1.20;;;7.90;99.90;;;;;;5067032;28;20451;-77
2024/02/23 04:17:40;;;;;;;1.30;1.20;;;7.90;99.90;;;;;;5064622;28;22393;-78
2024/02/23 04:20:10;;;;;;;1.20;1.20;;;7.90;99.90;;;;;;5067131;28;20443;-80
2024/02/23 04:22:39;;;;;;;1.23;1.10;;;7.90;99.90;;;;;;5062751;28;20463;-77
2024/02/23 04:25:08;;;;;;;1.60;1.10;;;7.80;99.90;;;;;;5062568;28;20454;-77
2024/02/23 04:27:37;;;;;;;2.47;1.20;;;7.90;99.90;;;;;;5063094;28;20868;-78
2024/02/23 04:30:07;;;;;;;1.13;1.13;;;8.00;99.90;;;;;;5062151;28;20463;-80
2024/02/23 04:32:35;;;;;;;1.33;1.20;;;8.10;99.90;;;;;;5067692;28;20503;-78
2024/02/23 04:35:04;;;;;;;1.63;1.20;;;8.00;99.90;;;;;;5064038;28;20455;-78
2024/02/23 04:37:32;;;;;;;1.47;1.37;;;8.00;99.90;;;;;;5063382;28;20478;-80
2024/02/23 04:40:05;;;;;;;1.20;1.20;;;7.90;99.90;;;;;;5068282;28;20448;-77
2024/02/23 04:42:34;;;;;;;1.43;1.20;;;7.90;99.90;;;;;;5062729;28;20478;-77
2024/02/23 04:45:03;;;;;;;1.20;1.00;;;7.80;99.90;;;;;;5064886;28;20987;-78
2024/02/23 04:47:32;;;;;;;1.90;1.17;;;7.80;99.90;;;;;;5064269;28;20454;-77
2024/02/23 04:50:02;;;;;;;1.90;1.20;;;7.70;99.90;;;;;;5061427;28;20903;-78
2024/02/23 04:52:30;;;;;;;1.47;1.10;;;7.70;99.90;;;;;;5065403;28;20532;-79
2024/02/23 04:54:59;;;;;;;1.67;1.30;;;7.70;99.90;;;;;;5065654;28;20459;-78
2024/02/23 04:57:27;;;;;;;1.33;1.10;;;7.70;99.90;;;;;;5062902;28;20538;-78
2024/02/23 04:59:55;;;;;;;1.30;1.20;;;7.70;99.90;;;;;;5065853;28;20474;-76
2024/02/23 05:02:28;;;;;;;1.23;1.23;;;7.70;99.90;;;;;;5057822;28;20484;-80
2024/02/23 05:04:57;;;;;;;1.57;1.20;;;7.70;99.90;;;;;;5065785;28;20493;-79
2024/02/23 05:07:25;;;;;;;2.40;1.47;;;7.60;99.90;;;;;;5064749;28;20451;-78
2024/02/23 05:09:53;;;;;;;1.10;1.10;;;7.60;99.90;;;;;;5062505;28;20440;-80
2024/02/23 05:12:21;;;;;;;1.30;1.20;;;7.60;99.90;;;;;;5064629;28;20483;-78
2024/02/23 05:14:48;;;;;;;3.90;1.47;;;7.60;99.90;;;;;;5065614;28;20443;-78
2024/02/23 05:17:17;;;;;;;1.50;1.30;;;7.60;99.90;;;;;;5065974;28;21147;-77
2024/02/23 05:19:47;;;;;;;1.40;1.17;;;7.60;99.90;;;;;;5062936;28;20471;-82
2024/02/23 05:22:16;;;;;;;1.57;1.23;;;7.60;99.90;;;;;;5066482;28;20474;-82
2024/02/23 05:24:45;;;;;;;1.13;1.10;;;7.60;99.90;;;;;;5061546;28;20508;-78
2024/02/23 05:27:13;;;;;;;1.90;1.30;;;7.60;99.90;;;;;;5065444;28;21198;-79
2024/02/23 05:29:41;;;;;;;2.00;1.50;;;7.60;99.90;;;;;;5065906;28;20451;-78
2024/02/23 05:32:10;;;;;;;1.20;1.20;;;7.50;99.90;;;;;;5062794;28;21017;-77
2024/02/23 05:34:39;;;;;;;1.60;1.50;;;7.50;99.90;;;;;;5060910;28;20490;-78
2024/02/23 05:37:17;;;;;;;2.40;1.13;;;7.40;99.90;;;;;;5061818;28;20460;-78
2024/02/23 05:39:45;;;;;;;1.43;1.23;;;7.40;99.90;;;;;;5059906;28;20841;-79
2024/02/23 05:42:15;;;;;;;1.43;1.30;;;7.40;99.90;;;;;;5061853;28;20474;-77
2024/02/23 05:44:44;;;;;;;2.30;1.40;;;7.40;99.90;;;;;;5062470;28;20551;-77
2024/02/23 05:47:13;;;;;;;1.50;1.40;;;7.40;99.90;;;;;;5060442;28;20534;-78
2024/02/23 05:49:42;;;;;;;1.43;1.43;;;7.40;99.90;;;;;;5058937;28;20448;-82
2024/02/23 05:52:10;;;;;;;1.40;1.30;;;7.30;99.90;;;;;;5061544;28;20566;-79
2024/02/23 05:54:42;;;;;;;1.97;1.87;;;7.30;99.90;;;;;;5060381;28;20449;-78
2024/02/23 05:57:10;;;;;;;1.50;1.40;;;7.30;99.90;;;;;;5058132;28;20810;-80
2024/02/23 05:59:38;;;;;;;1.40;1.30;;;7.30;99.90;;;;;;5057433;28;20931;-76
2024/02/23 06:02:06;;;;;;;2.00;1.90;;;7.20;99.90;;;;;;5058564;28;20525;-78
2024/02/23 06:04:34;;;;;;;1.10;1.10;;;7.20;99.90;;;;;;5059752;28;20543;-78
2024/02/23 06:07:03;;;;;;;1.50;1.40;;;7.20;99.90;;;;;;5059474;28;20505;-76
2024/02/23 06:09:31;;;;;;;1.30;1.20;;;7.30;99.90;;;;;;5058732;28;20448;-78
2024/02/23 06:12:00;;;;;;;1.70;1.60;;;7.20;99.90;;;;;;5059064;28;20486;-80
2024/02/23 06:14:28;;;;;;;1.43;1.40;;;7.30;99.90;;;;;;5059782;28;20549;-80
2024/02/23 06:16:57;;;;;;;1.50;1.20;;;7.20;99.90;;;;;;5058791;28;20878;-81
2024/02/23 06:19:25;;;;;;;2.10;1.40;;;7.20;99.90;;;;;;5063702;28;20563;-79
2024/02/23 06:21:53;;;;;;;1.50;1.43;;;7.30;99.90;;;;;;5063260;28;20470;-75
2024/02/23 06:24:21;;;;;;;1.40;1.30;;;7.20;99.90;;;;;;5062998;28;20444;-79
2024/02/23 06:26:49;;;;;;;3.03;1.47;;;7.10;99.90;;;;;;5058439;28;20831;-78
2024/02/23 06:29:19;;;;;;;1.40;1.30;;;7.10;99.90;;;;;;5059809;28;20538;-78
2024/02/23 06:31:49;;;;;;;1.93;1.27;;;7.10;99.90;;;;;;5062764;28;20560;-75
2024/02/23 06:34:17;;;;;;;1.30;1.30;;;7.10;99.90;;;;;;5061813;28;20459;-76
2024/02/23 06:36:46;;;;;;;2.50;1.53;;;7.30;99.90;;;;;;5058997;28;20952;-77
2024/02/23 06:39:17;;;;;;;1.40;1.30;;;7.20;99.90;;;;;;5060776;28;20506;-76
2024/02/23 06:41:46;;;;;;;2.67;1.50;;;7.20;99.90;;;;;;5061376;28;20551;-74
2024/02/23 06:44:14;;;;;;;1.47;1.47;;;7.10;99.90;;;;;;5062532;28;20589;-79
2024/02/23 06:46:44;;;;;;;1.50;1.50;;;7.10;99.90;;;;;;5061260;28;20459;-78
2024/02/23 06:49:12;;;;;;;3.03;1.50;;;7.10;99.90;;;;;;5064333;28;20455;-76
2024/02/23 06:51:42;;;;;;;2.60;2.40;;;7.10;99.90;;;;;;5061872;28;20455;-75
2024/02/23 06:54:10;;;;;;;2.30;1.80;;;7.30;99.90;;;;;;5062210;28;20479;-78
2024/02/23 06:56:38;;;;;;;1.40;1.30;;;7.30;99.90;;;;;;5061631;28;20855;-76
2024/02/23 06:59:06;;;;;;;1.57;1.47;;;7.30;99.90;;;;;;5062429;28;20439;-76
2024/02/23 07:01:36;;;;;;;2.10;2.00;;;7.20;99.90;;;;;;5062082;28;20983;-77
2024/02/23 07:04:09;;;;;;;1.67;1.50;;;7.10;99.90;;;;;;5060606;28;20455;-76
2024/02/23 07:06:37;;;;;;;2.73;1.50;;;7.20;99.90;;;;;;5063363;28;20448;-78
2024/02/23 07:09:05;;;;;;;3.80;2.33;;;7.30;99.90;;;;;;5063337;28;20472;-78
2024/02/23 07:11:34;;;;;;;1.50;1.40;;;7.20;99.90;;;;;;5063656;28;20496;-77
2024/02/23 07:14:02;;;;;;;2.83;1.40;;;7.30;99.90;;;;;;5060007;28;20826;-79
2024/02/23 07:16:30;;;;;;;1.30;1.30;;;7.40;99.90;;;;;;5061104;28;20901;-79
2024/02/23 07:18:59;;;;;;;1.43;1.30;;;7.40;99.90;;;;;;5064936;28;20475;-79
2024/02/23 07:21:28;;;;;;;2.00;1.40;;;7.40;99.90;;;;;;5062409;28;20974;-80
2024/02/23 07:23:56;;;;;;;1.93;1.40;;;7.40;99.90;;;;;;5061560;28;20466;-77
2024/02/23 07:26:24;;;;;;;1.97;1.70;;;7.30;99.90;;;;;;5065540;28;20848;-78
2024/02/23 07:28:53;;;;;;;1.87;1.57;;;7.50;99.90;;;;;;5055257;28;20451;-78
2024/02/23 07:31:21;;;;;;;1.37;1.37;;;7.40;99.90;;;;;;5060059;28;20443;-77
2024/02/23 07:33:50;;;;;;;5.70;1.67;;;7.40;99.90;;;;;;5063846;28;20554;-76
2024/02/23 07:36:19;;;;;;;1.90;1.30;;;7.60;99.90;;;;;;5066625;28;20908;-78
2024/02/23 07:38:49;;;;;;;3.23;1.53;;;7.60;99.90;;;;;;5065165;28;20574;-78
2024/02/23 07:41:17;;;;;;;1.43;1.33;;;7.50;99.90;;;;;;5067175;28;20987;-78
2024/02/23 07:43:46;;;;;;;1.70;1.50;;;7.60;99.90;;;;;;5062860;28;20482;-77
2024/02/23 07:46:14;;;;;;;1.40;1.40;;;7.70;99.90;;;;;;5066917;28;20447;-77
2024/02/23 07:48:42;;;;;;;1.50;1.40;;;7.60;99.90;;;;;;5066627;28;20455;-79
2024/02/23 07:51:10;;;;;;;1.63;1.37;;;7.70;99.90;;;;;;5067215;28;21101;-78
2024/02/23 07:53:39;;;;;;;1.70;1.60;;;7.50;99.90;;;;;;5066933;28;20498;-78
2024/02/23 07:56:10;;;;;;;1.60;1.50;;;7.50;99.90;;;;;;5071159;28;20522;-79
2024/02/23 07:58:38;;;;;;;1.57;1.47;;;7.40;99.90;;;;;;5068226;28;20518;-76
2024/02/23 08:01:06;;;;;;;1.53;1.43;;;7.60;99.90;;;;;;5067512;28;20494;-77
2024/02/23 08:03:35;;;;;;;1.40;1.40;;;7.70;99.90;;;;;;5071059;28;20510;-75
2024/02/23 08:06:03;;;;;;;2.20;1.60;;;7.80;99.90;;;;;;5060270;28;20457;-78
2024/02/23 08:08:34;;;;;;;1.63;1.50;;;7.70;99.90;;;;;;5072875;28;20216;-76
2024/02/23 08:11:03;;;;;;;4.37;1.43;;;7.80;99.90;;;;;;5068139;28;20980;-75
2024/02/23 08:13:33;;;;;;;2.60;1.90;;;7.80;99.90;;;;;;5065606;28;20995;-76
2024/02/23 08:16:02;;;;;;;1.83;1.73;;;7.70;99.90;;;;;;5068476;28;20478;-77
2024/02/23 08:18:30;;;;;;;2.00;1.63;;;7.60;99.90;;;;;;5063039;28;20494;-81
2024/02/23 08:21:00;;;;;;;1.63;1.40;;;7.60;99.90;;;;;;5067497;28;20627;-79
2024/02/23 08:23:29;;;;;;;1.60;1.50;;;7.70;99.90;;;;;;5068809;28;20456;-78
2024/02/23 08:25:58;;;;;;;2.10;1.33;;;7.70;99.90;;;;;;5062587;28;21000;-76
2024/02/23 08:28:26;;;;;;;1.67;1.53;;;7.90;99.90;;;;;;5068292;28;20579;-76
2024/02/23 08:30:56;;;;;;;1.87;1.40;;;7.90;99.90;;;;;;5064479;28;20454;-79
2024/02/23 08:33:25;;;;;;;1.50;1.40;;;8.00;99.90;;;;;;5067990;28;20537;-78
2024/02/23 08:35:56;;;;;;;1.60;1.50;;;8.10;99.90;;;;;;5059878;28;20464;-79
2024/02/23 08:38:28;;;;;;;3.70;1.40;;;8.00;99.90;;;;;;5065988;28;20447;-76
2024/02/23 08:40:57;;;;;;;1.50;1.40;;;8.00;99.90;;;;;;5062471;28;20509;-76
2024/02/23 08:43:26;;;;;;;1.47;1.37;;;8.10;99.90;;;;;;5066819;28;20463;-77
2024/02/23 08:45:55;;;;;;;1.40;1.30;;;8.00;99.90;;;;;;5063999;28;20452;-79
2024/02/23 08:48:28;;;;;;;1.27;1.27;;;8.10;99.90;;;;;;5066231;28;20485;-77
2024/02/23 08:50:57;;;;;;;1.53;1.30;;;8.10;99.90;;;;;;5065369;28;20547;-79
2024/02/23 08:53:25;;;;;;;3.20;1.60;;;8.20;99.90;;;;;;5062925;28;20470;-75
2024/02/23 08:55:53;;;;;;;2.67;1.23;;;8.10;99.90;;;;;;5060480;28;20461;-78
2024/02/23 08:58:22;;;;;;;1.83;1.30;;;8.20;99.90;;;;;;5061562;28;20491;-77
2024/02/23 09:00:50;;;;;;;2.30;1.20;;;8.10;99.90;;;;;;5065617;28;20487;-78
2024/02/23 09:03:19;;;;;;;3.70;1.23;;;7.90;99.90;;;;;;5064635;28;20998;-78
2024/02/23 09:05:48;;;;;;;5.37;1.60;;;8.00;99.90;;;;;;5063479;28;20905;-79
2024/02/23 09:08:16;;;;;;;2.77;1.60;;;7.80;99.90;;;;;;5061498;28;20498;-74
2024/02/23 09:10:45;;;;;;;3.17;1.47;;;7.60;99.90;;;;;;5063101;28;20443;-77
2024/02/23 09:13:15;;;;;;;2.10;1.40;;;7.60;99.90;;;;;;5065166;28;20479;-78
2024/02/23 09:15:43;;;;;;;2.30;1.43;;;7.80;99.90;;;;;;5064249;28;21004;-77
2024/02/23 09:18:12;;;;;;;1.80;1.40;;;7.60;99.90;;;;;;5065661;28;20439;-77
2024/02/23 09:20:42;;;;;;;5.03;2.77;;;7.70;99.90;;;;;;5066368;28;20486;-80
2024/02/23 09:23:11;;;;;;;6.03;1.60;;;7.60;99.90;;;;;;5063338;28;21035;-78
2024/02/23 09:25:41;;;;;;;1.37;1.20;;;7.90;99.90;;;;;;5064567;28;20459;-77
2024/02/23 09:28:12;;;;;;;1.70;1.60;;;8.10;99.90;;;;;;5059602;28;20458;-79
2024/02/23 09:30:41;;;;;;;1.97;1.40;;;8.10;99.90;;;;;;5061525;28;20443;-77
2024/02/23 09:33:09;;;;;;;1.60;1.53;;;8.50;99.90;;;;;;5061828;28;20472;-79
2024/02/23 09:35:38;;;;;;;1.37;1.30;;;9.00;99.90;;;;;;5062660;28;20489;-78
2024/02/23 09:38:08;;;;;;;1.47;1.30;;;9.20;99.90;;;;;;5063905;28;21246;-78
2024/02/23 09:40:36;;;;;;;3.10;1.43;;;9.20;99.90;;;;;;5068109;28;20532;-77
2024/02/23 09:43:08;;;;;;;1.40;1.30;;;9.20;99.90;;;;;;5061083;28;20472;-79
2024/02/23 09:45:38;;;;;;;1.30;1.30;;;9.20;99.90;;;;;;5059630;28;20448;-80
2024/02/23 09:48:09;;;;;;;1.60;1.50;;;9.10;99.90;;;;;;5062834;28;20551;-78
2024/02/23 09:50:38;;;;;;;5.33;1.40;;;8.80;99.90;;;;;;5062021;28;20453;-77
2024/02/23 09:53:10;;;;;;;3.63;1.40;;;8.60;99.90;;;;;;5066044;28;20470;-77
2024/02/23 09:55:39;;;;;;;2.40;1.20;;;8.50;99.90;;;;;;5062111;28;21201;-79
2024/02/23 09:58:09;;;;;;;1.77;1.60;;;8.60;99.90;;;;;;5061076;28;20501;-80
2024/02/23 10:00:39;;;;;;;4.00;1.47;;;8.50;99.90;;;;;;5059548;28;20835;-80
2024/02/23 10:03:07;;;;;;;1.33;1.20;;;8.50;99.90;;;;;;5065139;28;20485;-75
2024/02/23 10:05:35;;;;;;;1.47;1.37;;;8.80;99.90;;;;;;5062607;28;20456;-77
2024/02/23 10:08:09;;;;;;;1.40;1.30;;;8.90;99.90;;;;;;5059761;28;20854;-77
2024/02/23 10:10:38;;;;;;;1.50;1.40;;;9.00;99.90;;;;;;5061730;28;20464;-75
2024/02/23 10:13:07;;;;;;;5.03;1.57;;;9.30;99.90;;;;;;5064339;28;20493;-78
2024/02/23 10:15:36;;;;;;;2.90;1.60;;;9.50;99.90;;;;;;5061114;28;20508;-78
2024/02/23 10:18:04;;;;;;;5.87;1.40;;;9.30;99.90;;;;;;5062505;28;20455;-78
2024/02/23 10:20:32;;;;;;;1.80;1.50;;;9.10;99.90;;;;;;5063227;28;20450;-76
2024/02/23 10:23:01;;;;;;;1.40;1.30;;;8.60;99.90;;;;;;5059892;28;20514;-78
2024/02/23 10:25:31;;;;;;;1.60;1.50;;;8.80;99.90;;;;;;5063168;28;20464;-76
2024/02/23 10:28:01;;;;;;;2.30;1.33;;;8.70;99.90;;;;;;5063589;28;20447;-79
2024/02/23 10:30:30;;;;;;;1.50;1.40;;;8.70;99.90;;;;;;5060025;28;20551;-77
2024/02/23 10:32:59;;;;;;;1.60;1.50;;;8.80;99.90;;;;;;5059915;28;20517;-78
2024/02/23 10:35:27;;;;;;;1.40;1.30;;;8.80;99.90;;;;;;5062697;28;20586;-77
2024/02/23 10:37:56;;;;;;;2.53;1.60;;;9.20;99.90;;;;;;5062547;28;20455;-76
2024/02/23 10:40:26;;;;;;;1.80;1.50;;;9.20;99.90;;;;;;5063436;28;20451;-77
2024/02/23 10:43:02;;;;;;;1.50;1.40;;;9.50;99.90;;;;;;5060424;28;20514;-81
2024/02/23 10:45:32;;;;;;;2.00;1.80;;;10.00;99.90;;;;;;5062601;28;20474;-77
2024/02/23 10:48:00;;;;;;;2.53;2.33;;;9.80;99.90;;;;;;5061783;28;20539;-76
2024/02/23 10:50:29;;;;;;;7.00;1.77;;;10.60;99.90;;;;;;5062085;28;20452;-79
2024/02/23 10:52:58;;;;;;;3.27;1.63;;;11.30;99.90;;;;;;5062243;28;20546;-76
2024/02/23 10:55:29;;;;;;;2.30;2.10;;;11.20;99.90;;;;;;5058179;28;20454;-77
2024/02/23 10:58:00;;;;;;;2.73;1.40;;;10.70;99.90;;;;;;5061853;28;20539;-75
2024/02/23 11:00:28;;;;;;;1.80;1.67;;;10.70;99.90;;;;;;5058531;28;20458;-76
2024/02/23 11:02:57;;;;;;;1.77;1.67;;;10.70;99.90;;;;;;5062337;28;21000;-79
2024/02/23 11:05:26;;;;;;;6.27;1.50;;;11.30;99.90;;;;;;5059052;28;20832;-77
2024/02/23 11:07:57;;;;;;;4.97;1.70;;;11.30;99.90;;;;;;5058411;28;20463;-76
2024/02/23 11:10:27;;;;;;;2.87;1.67;;;11.30;99.90;;;;;;5077978;28;21088;-77
2024/02/23 11:13:01;;;;;;;1.60;1.50;;;11.70;99.90;;;;;;5062428;28;21016;-79
2024/02/23 11:15:30;;;;;;;2.40;1.70;;;11.50;99.90;;;;;;5057516;28;20822;-77
2024/02/23 11:17:58;;;;;;;1.50;1.40;;;10.80;99.90;;;;;;5058405;28;20462;-75
2024/02/23 11:20:35;;;;;;;2.20;1.50;;;10.40;99.90;;;;;;5066599;28;20487;-77
2024/02/23 11:23:15;;;;;;;1.60;1.50;;;9.80;99.90;;;;;;5060855;28;20514;-80
2024/02/23 11:25:43;;;;;;;6.17;1.37;;;9.90;99.90;;;;;;5059994;28;20451;-75
2024/02/23 11:28:23;;;;;;;2.80;1.80;;;9.70;99.90;;;;;;5058996;28;20454;-77
2024/02/23 11:30:52;;;;;;;1.30;1.30;;;9.50;99.90;;;;;;5060952;28;20465;-75
2024/02/23 11:33:27;;;;;;;4.60;1.93;;;9.40;99.90;;;;;;5062410;28;20455;-79
2024/02/23 11:36:06;;;;;;;2.40;1.70;;;9.50;99.90;;;;;;5061788;28;20526;-77
2024/02/23 11:38:35;;;;;;;2.00;1.60;;;9.30;99.90;;;;;;5059045;28;20451;-78
2024/02/23 11:41:04;;;;;;;2.87;1.40;;;9.40;99.90;;;;;;5057378;28;20447;-76
2024/02/23 11:43:36;;;;;;;2.10;1.63;;;9.40;99.90;;;;;;5059999;28;20479;-76
2024/02/23 11:46:04;;;;;;;3.33;1.70;;;9.20;99.90;;;;;;5061617;28;20466;-76
2024/02/23 11:48:32;;;;;;;2.90;1.60;;;9.30;99.90;;;;;;5057380;28;20993;-75
2024/02/23 11:51:01;;;;;;;2.90;1.70;;;9.20;99.90;;;;;;5057794;28;20444;-78
2024/02/23 11:53:30;;;;;;;4.40;1.70;;;9.30;99.90;;;;;;5061871;28;21207;-80
2024/02/23 11:55:58;;;;;;;2.97;1.97;;;9.30;99.90;;;;;;5056420;28;20439;-77
2024/02/23 11:58:27;;;;;;;3.93;1.70;;;9.10;99.90;;;;;;5059971;28;20443;-78
2024/02/23 12:00:58;;;;;;;2.80;1.50;;;9.20;99.90;;;;;;5063601;28;20459;-77
2024/02/23 12:03:27;;;;;;;2.87;2.67;;;9.40;99.90;;;;;;5063753;28;20571;-77
2024/02/23 12:05:57;;;;;;;6.30;1.73;;;9.30;99.90;;;;;;5058841;28;20451;-78
2024/02/23 12:08:26;;;;;;;4.50;1.80;;;9.30;99.90;;;;;;5062892;28;20438;-76
2024/02/23 12:10:55;;;;;;;4.30;1.73;;;9.40;99.90;;;;;;5059535;28;20459;-78
2024/02/23 12:13:24;;;;;;;2.93;1.50;;;9.40;99.90;;;;;;5063129;28;21058;-79
2024/02/23 12:15:54;;;;;;;4.90;1.50;;;9.40;99.90;;;;;;5058877;28;20440;-77
2024/02/23 12:18:26;;;;;;;1.50;1.40;;;9.30;99.90;;;;;;5062794;28;20549;-79
2024/02/23 12:20:54;;;;;;;1.60;1.50;;;9.20;99.90;;;;;;5063159;28;20451;-78
2024/02/23 12:23:22;;;;;;;1.80;1.70;;;9.30;99.90;;;;;;5062477;28;20862;-81
2024/02/23 12:25:54;;;;;;;2.23;2.03;;;9.30;99.90;;;;;;5065865;28;20439;-79
2024/02/23 12:28:23;;;;;;;3.67;2.13;;;9.30;99.90;;;;;;5060177;28;20439;-78
2024/02/23 12:31:01;;;;;;;2.60;1.30;;;9.20;99.90;;;;;;5066984;28;20513;-79
2024/02/23 12:33:32;;;;;;;2.10;1.60;;;8.90;99.90;;;;;;5063638;28;20505;-79
2024/02/23 12:36:01;;;;;;;2.00;1.70;;;9.10;99.90;;;;;;5066389;28;20459;-79
2024/02/23 12:38:29;;;;;;;1.83;1.73;;;9.10;99.90;;;;;;5064418;28;20454;-77
2024/02/23 12:40:57;;;;;;;2.70;1.50;;;9.10;99.90;;;;;;5066420;28;20512;-76
2024/02/23 12:43:26;;;;;;;2.73;2.37;;;9.10;99.90;;;;;;5065583;28;20490;-77
2024/02/23 12:45:55;;;;;;;2.20;2.00;;;9.10;99.90;;;;;;5066293;28;20546;-77
2024/02/23 12:48:23;;;;;;;2.20;1.73;;;9.20;99.90;;;;;;5065036;28;21221;-77
2024/02/23 12:50:53;;;;;;;4.23;1.60;;;9.20;99.90;;;;;;5064278;28;20967;-78
2024/02/23 12:53:36;;;;;;;2.13;1.33;;;9.00;99.90;;;;;;5067030;28;20460;-77
2024/02/23 12:56:07;;;;;;;3.67;1.63;;;9.00;99.90;;;;;;5065767;28;20455;-79
2024/02/23 12:58:36;;;;;;;2.40;1.60;;;9.20;99.90;;;;;;5064891;28;20497;-77
2024/02/23 13:01:06;;;;;;;2.23;1.60;;;9.20;99.90;;;;;;5062844;28;20459;-79
2024/02/23 13:03:36;;;;;;;3.50;1.57;;;9.20;99.90;;;;;;5065813;28;20561;-77
2024/02/23 13:06:07;;;;;;;5.80;1.60;;;9.20;99.90;;;;;;5066494;28;20451;-76
2024/02/23 13:08:35;;;;;;;2.57;2.37;;;9.30;99.90;;;;;;5063981;28;20493;-78